Time;durP1;ratioP1;P1;durP2;ratioP2;P2;SDS_P1;SDS_P2;PMS_P1;PMS_P2;Temp;Humidity;BMP_temperature;BMP_pressure;BME280_temperature;BME280_humidity;BME280_pressure;Samples;Min_cycle;Max_cycle;Signal;HPM_P1;HPM_P2
2021/07/03 00:00:11;;;;;;;8.90;4.90;;;22.40;83.50;;;;;;5076616;28;20111;-46
2021/07/03 00:02:37;;;;;;;9.10;5.13;;;22.40;83.70;;;;;;5075576;28;20111;-46
2021/07/03 00:05:04;;;;;;;8.30;5.47;;;22.30;83.70;;;;;;5076336;28;20464;-44
2021/07/03 00:07:30;;;;;;;11.27;5.80;;;22.30;83.60;;;;;;5075582;28;20028;-45
2021/07/03 00:09:56;;;;;;;7.90;6.00;;;22.30;83.50;;;;;;5076286;28;20036;-43
2021/07/03 00:12:21;;;;;;;8.93;6.07;;;22.30;83.50;;;;;;5075621;28;20055;-44
2021/07/03 00:14:47;;;;;;;10.02;6.07;;;22.20;83.70;;;;;;5076144;28;20028;-46
2021/07/03 00:17:13;;;;;;;11.05;6.70;;;22.20;83.80;;;;;;5075615;28;20047;-45
2021/07/03 00:19:39;;;;;;;14.88;7.90;;;22.20;83.70;;;;;;5075688;28;20108;-43
2021/07/03 00:22:05;;;;;;;10.82;7.82;;;22.10;83.80;;;;;;5075032;28;20032;-43
2021/07/03 00:24:30;;;;;;;11.38;6.93;;;22.10;83.90;;;;;;5075963;28;20411;-44
2021/07/03 00:26:56;;;;;;;11.30;6.85;;;22.10;84.00;;;;;;5075036;28;20098;-43
2021/07/03 00:29:22;;;;;;;11.40;7.13;;;22.10;83.90;;;;;;5075797;28;20066;-44
2021/07/03 00:31:47;;;;;;;11.50;7.57;;;22.10;84.20;;;;;;5075124;28;20120;-44
2021/07/03 00:34:13;;;;;;;9.70;6.80;;;22.00;84.10;;;;;;5075547;28;20032;-43
2021/07/03 00:36:39;;;;;;;10.70;7.10;;;22.00;84.00;;;;;;5075275;28;20428;-44
2021/07/03 00:39:05;;;;;;;11.82;6.55;;;22.00;83.90;;;;;;5075453;28;20390;-47
2021/07/03 00:41:30;;;;;;;8.82;6.03;;;22.00;84.00;;;;;;5075504;28;20100;-44
2021/07/03 00:43:56;;;;;;;11.60;6.55;;;21.90;84.00;;;;;;5074122;28;20171;-49
2021/07/03 00:46:22;;;;;;;8.93;5.43;;;21.90;83.80;;;;;;5075369;28;20028;-45
2021/07/03 00:48:48;;;;;;;10.38;5.88;;;21.90;83.80;;;;;;5074860;28;20021;-43
2021/07/03 00:51:14;;;;;;;11.98;5.50;;;21.80;83.60;;;;;;5075274;28;20024;-44
2021/07/03 00:53:40;;;;;;;11.60;5.60;;;21.80;83.50;;;;;;5075048;28;20032;-44
2021/07/03 00:56:06;;;;;;;11.32;5.88;;;21.80;83.50;;;;;;5075172;28;20507;-44
2021/07/03 00:58:32;;;;;;;10.75;5.68;;;21.70;83.20;;;;;;5075317;28;20033;-43
2021/07/03 01:00:58;;;;;;;13.85;5.60;;;21.70;83.40;;;;;;5074970;28;20336;-43
2021/07/03 01:03:23;;;;;;;12.25;6.20;;;21.70;83.40;;;;;;5074870;28;20029;-43
2021/07/03 01:05:50;;;;;;;11.43;5.78;;;21.70;83.40;;;;;;5075662;28;20037;-45
2021/07/03 01:08:16;;;;;;;8.38;5.63;;;21.60;83.20;;;;;;5079015;28;20050;-44
2021/07/03 01:10:42;;;;;;;10.25;6.18;;;21.60;83.50;;;;;;5079390;28;20043;-46
2021/07/03 01:13:08;;;;;;;17.35;7.45;;;21.60;83.60;;;;;;5078945;28;20024;-44
2021/07/03 01:15:34;;;;;;;20.13;7.05;;;21.60;83.50;;;;;;5079057;28;20344;-44
2021/07/03 01:17:59;;;;;;;14.98;7.22;;;21.60;83.40;;;;;;5077593;28;20048;-43
2021/07/03 01:20:25;;;;;;;14.20;8.43;;;21.60;83.40;;;;;;5079549;28;20039;-45
2021/07/03 01:22:51;;;;;;;15.05;7.15;;;21.50;83.10;;;;;;5078632;28;20028;-45
2021/07/03 01:25:17;;;;;;;18.40;8.73;;;21.50;83.10;;;;;;5079270;28;20451;-43
2021/07/03 01:27:55;;;;;;;18.38;8.38;;;21.40;82.80;;;;;;5078575;28;20135;-43
2021/07/03 01:30:21;;;;;;;18.30;8.18;;;21.40;82.80;;;;;;5079389;28;20056;-44
2021/07/03 01:32:47;;;;;;;21.73;9.00;;;21.40;82.90;;;;;;5078507;28;20431;-45
2021/07/03 01:35:12;;;;;;;22.23;9.13;;;21.30;82.70;;;;;;5079294;28;20033;-44
2021/07/03 01:37:38;;;;;;;21.17;9.23;;;21.30;82.70;;;;;;5078328;28;20174;-44
2021/07/03 01:40:05;;;;;;;21.25;9.10;;;21.30;82.70;;;;;;5079025;28;20247;-45
2021/07/03 01:42:31;;;;;;;19.55;8.70;;;21.30;82.80;;;;;;5078218;28;20024;-45
2021/07/03 01:44:57;;;;;;;16.58;8.52;;;21.20;83.10;;;;;;5077560;28;20055;-44
2021/07/03 01:47:23;;;;;;;17.88;8.20;;;21.20;83.00;;;;;;5078235;28;20423;-44
2021/07/03 01:49:49;;;;;;;15.80;7.75;;;21.20;83.10;;;;;;5078839;28;20044;-44
2021/07/03 01:52:18;;;;;;;21.17;9.45;;;21.20;83.20;;;;;;5078158;28;20365;-44
2021/07/03 01:54:44;;;;;;;23.00;8.90;;;21.10;83.10;;;;;;5078667;28;20489;-44
2021/07/03 01:57:11;;;;;;;23.30;9.27;;;21.10;82.90;;;;;;5078081;28;20077;-45
2021/07/03 01:59:37;;;;;;;23.02;9.50;;;21.10;83.20;;;;;;5078574;28;20032;-44
2021/07/03 02:02:04;;;;;;;31.67;11.65;;;21.10;83.20;;;;;;5077991;28;20040;-44
2021/07/03 02:04:30;;;;;;;39.63;12.45;;;21.10;83.20;;;;;;5078538;28;20040;-43
2021/07/03 02:06:56;;;;;;;42.50;12.48;;;21.00;83.00;;;;;;5077605;28;20024;-44
2021/07/03 02:09:23;;;;;;;39.15;11.43;;;21.00;83.00;;;;;;5078316;28;20421;-44
2021/07/03 02:11:49;;;;;;;34.65;12.13;;;21.00;83.00;;;;;;5077865;28;20032;-44
2021/07/03 02:14:15;;;;;;;40.53;12.60;;;21.00;83.10;;;;;;5078390;28;20313;-44
2021/07/03 02:16:41;;;;;;;32.95;11.38;;;21.00;83.20;;;;;;5077557;28;20032;-44
2021/07/03 02:19:08;;;;;;;37.17;11.45;;;21.10;83.30;;;;;;5077254;28;20112;-43
2021/07/03 02:21:34;;;;;;;26.70;10.00;;;21.00;83.30;;;;;;5077450;28;20036;-44
2021/07/03 02:23:59;;;;;;;28.10;10.00;;;21.00;83.30;;;;;;5077600;28;20063;-43
2021/07/03 02:26:25;;;;;;;28.73;10.10;;;21.00;83.30;;;;;;5078041;28;20111;-44
2021/07/03 02:28:52;;;;;;;31.98;10.70;;;21.00;83.20;;;;;;5077731;28;20048;-44
2021/07/03 02:31:19;;;;;;;31.30;10.85;;;21.00;83.20;;;;;;5077638;28;20020;-44
2021/07/03 02:33:45;;;;;;;23.55;9.38;;;21.00;83.20;;;;;;5077317;28;20047;-44
2021/07/03 02:36:12;;;;;;;24.00;9.50;;;21.00;83.20;;;;;;5077537;28;20119;-43
2021/07/03 02:38:38;;;;;;;28.02;10.02;;;21.10;83.30;;;;;;5077221;28;20063;-45
2021/07/03 02:41:04;;;;;;;28.92;9.90;;;21.10;83.30;;;;;;5077265;28;20128;-45
2021/07/03 02:43:30;;;;;;;28.75;9.88;;;21.10;83.20;;;;;;5077276;28;20103;-44
2021/07/03 02:45:55;;;;;;;29.85;10.23;;;21.10;83.30;;;;;;5076429;28;20028;-44
2021/07/03 02:48:21;;;;;;;22.30;9.63;;;21.10;83.50;;;;;;5077032;28;20025;-43
2021/07/03 02:50:47;;;;;;;22.45;9.30;;;21.10;83.40;;;;;;5077287;28;20158;-45
2021/07/03 02:53:13;;;;;;;27.45;9.90;;;21.10;83.40;;;;;;5076967;28;20047;-43
2021/07/03 02:55:39;;;;;;;25.15;9.80;;;21.10;83.30;;;;;;5077254;28;20024;-45
2021/07/03 02:58:04;;;;;;;20.55;9.07;;;21.20;83.30;;;;;;5076079;28;20340;-43
2021/07/03 03:00:31;;;;;;;18.40;7.97;;;21.10;83.20;;;;;;5077116;28;20029;-44
2021/07/03 03:02:56;;;;;;;16.20;8.50;;;21.10;82.90;;;;;;5076854;28;20032;-45
2021/07/03 03:05:22;;;;;;;16.60;8.57;;;21.10;83.20;;;;;;5077439;28;20031;-44
2021/07/03 03:07:48;;;;;;;15.70;7.70;;;21.10;83.50;;;;;;5076705;28;20024;-44
2021/07/03 03:10:16;;;;;;;17.80;10.10;;;21.20;83.60;;;;;;5077543;28;20033;-44
2021/07/03 03:12:42;;;;;;;19.75;9.27;;;21.20;83.90;;;;;;5077099;28;20411;-46
2021/07/03 03:15:11;;;;;;;16.55;9.50;;;21.30;84.10;;;;;;5077305;28;20123;-43
2021/07/03 03:17:37;;;;;;;13.32;8.88;;;21.30;84.30;;;;;;5076771;28;20032;-45
2021/07/03 03:20:05;;;;;;;15.73;8.80;;;21.30;84.40;;;;;;5076662;28;20050;-43
2021/07/03 03:22:31;;;;;;;13.88;8.73;;;21.40;84.40;;;;;;5076245;28;20028;-44
2021/07/03 03:24:57;;;;;;;13.88;7.95;;;21.50;83.80;;;;;;5076958;28;20135;-43
2021/07/03 03:27:22;;;;;;;13.20;8.63;;;21.50;83.10;;;;;;5076233;28;20033;-44
2021/07/03 03:29:48;;;;;;;15.00;10.98;;;21.50;82.60;;;;;;5075938;28;20115;-44
2021/07/03 03:32:14;;;;;;;17.98;11.38;;;21.60;82.30;;;;;;5076363;28;20060;-43
2021/07/03 03:34:39;;;;;;;16.02;11.35;;;21.60;82.10;;;;;;5077013;28;20044;-45
2021/07/03 03:37:05;;;;;;;14.57;12.07;;;21.60;82.00;;;;;;5076503;28;20111;-43
2021/07/03 03:39:31;;;;;;;18.13;11.23;;;21.60;81.50;;;;;;5076607;28;20060;-46
2021/07/03 03:41:56;;;;;;;20.27;12.18;;;21.70;81.70;;;;;;5076254;28;20107;-43
2021/07/03 03:44:22;;;;;;;21.67;13.07;;;21.70;81.40;;;;;;5076255;28;20033;-44
2021/07/03 03:46:52;;;;;;;29.17;14.70;;;21.80;80.90;;;;;;5076104;28;20020;-45
2021/07/03 03:49:19;;;;;;;22.80;14.70;;;21.80;80.70;;;;;;5076450;28;20037;-45
2021/07/03 03:51:48;;;;;;;26.35;15.75;;;21.90;80.60;;;;;;5076059;28;20444;-44
2021/07/03 03:54:14;;;;;;;32.80;21.40;;;21.90;80.40;;;;;;5076080;28;20102;-44
2021/07/03 03:56:40;;;;;;;38.50;23.42;;;22.00;80.10;;;;;;5076185;28;20027;-45
2021/07/03 03:59:07;;;;;;;37.67;25.33;;;22.10;80.00;;;;;;5076069;28;20036;-44
2021/07/03 04:01:32;;;;;;;34.70;24.48;;;22.10;78.80;;;;;;5076089;28;20340;-43
2021/07/03 04:03:58;;;;;;;35.42;22.38;;;22.20;78.40;;;;;;5075751;28;20028;-43
2021/07/03 04:06:24;;;;;;;30.60;20.15;;;22.20;78.40;;;;;;5076417;28;20035;-47
2021/07/03 04:08:49;;;;;;;31.70;19.13;;;22.30;78.30;;;;;;5075825;28;20458;-44
2021/07/03 04:11:15;;;;;;;37.72;20.13;;;22.30;78.20;;;;;;5075966;28;20051;-46
2021/07/03 04:13:41;;;;;;;44.83;21.98;;;22.40;78.10;;;;;;5075571;28;20024;-46
2021/07/03 04:16:06;;;;;;;29.65;18.38;;;22.40;77.60;;;;;;5076112;28;20075;-45
2021/07/03 04:18:32;;;;;;;35.72;18.48;;;22.50;77.30;;;;;;5075370;28;20044;-45
2021/07/03 04:20:58;;;;;;;43.60;19.25;;;22.50;77.60;;;;;;5075962;28;20032;-44
2021/07/03 04:23:23;;;;;;;44.30;21.45;;;22.50;77.40;;;;;;5075331;28;20255;-44
2021/07/03 04:25:49;;;;;;;41.67;19.35;;;22.60;77.60;;;;;;5076239;28;20032;-45
2021/07/03 04:28:15;;;;;;;53.45;21.48;;;22.60;77.30;;;;;;5075114;28;20100;-45
2021/07/03 04:30:41;;;;;;;41.58;16.35;;;22.60;78.00;;;;;;5076025;28;20452;-43
2021/07/03 04:33:07;;;;;;;41.00;16.92;;;22.70;77.00;;;;;;5075662;28;20106;-44
2021/07/03 04:35:33;;;;;;;44.80;16.75;;;22.70;77.00;;;;;;5075957;28;20032;-44
2021/07/03 04:37:58;;;;;;;33.90;15.00;;;22.80;76.90;;;;;;5075257;28;20556;-46
2021/07/03 04:40:24;;;;;;;37.88;16.27;;;22.80;76.70;;;;;;5075681;28;20064;-46
2021/07/03 04:42:50;;;;;;;34.33;15.60;;;22.80;76.30;;;;;;5075072;28;20337;-46
2021/07/03 04:45:15;;;;;;;32.55;15.00;;;22.80;76.20;;;;;;5075851;28;20041;-43
2021/07/03 04:47:41;;;;;;;33.35;16.05;;;22.90;76.30;;;;;;5075069;28;20035;-43
2021/07/03 04:50:07;;;;;;;42.97;19.00;;;22.90;76.30;;;;;;5075724;28;20037;-42
2021/07/03 04:52:33;;;;;;;39.65;19.70;;;22.90;76.10;;;;;;5075005;28;20111;-46
2021/07/03 04:54:59;;;;;;;31.67;15.93;;;23.00;76.50;;;;;;5075778;28;20033;-44
2021/07/03 04:57:25;;;;;;;31.15;15.13;;;23.00;76.30;;;;;;5075369;28;20126;-45
2021/07/03 04:59:51;;;;;;;34.28;15.50;;;23.10;76.00;;;;;;5075608;28;20163;-45
2021/07/03 05:02:17;;;;;;;31.60;15.13;;;23.10;75.80;;;;;;5075092;28;20059;-45
2021/07/03 05:04:43;;;;;;;30.95;15.32;;;23.10;76.00;;;;;;5075537;28;20111;-44
2021/07/03 05:07:09;;;;;;;43.95;21.50;;;23.20;76.00;;;;;;5075257;28;20025;-44
2021/07/03 05:09:35;;;;;;;31.35;14.23;;;23.20;75.90;;;;;;5075458;28;20032;-44
2021/07/03 05:12:00;;;;;;;26.38;14.25;;;23.30;75.80;;;;;;5074661;28;20367;-44
2021/07/03 05:14:26;;;;;;;39.47;14.70;;;23.40;75.80;;;;;;5075433;28;20032;-45
2021/07/03 05:16:52;;;;;;;29.33;15.35;;;23.40;75.50;;;;;;5062224;28;20547;-48
2021/07/03 05:19:17;;;;;;;33.83;15.63;;;23.50;75.40;;;;;;5054979;28;20041;-45
2021/07/03 05:21:44;;;;;;;30.30;14.35;;;23.50;74.90;;;;;;5054022;28;20029;-45
2021/07/03 05:24:09;;;;;;;32.60;14.75;;;23.60;74.60;;;;;;5054644;28;20048;-45
2021/07/03 05:26:35;;;;;;;31.05;14.13;;;23.70;74.30;;;;;;5054977;28;20025;-46
2021/07/03 05:29:01;;;;;;;31.60;13.70;;;23.70;74.50;;;;;;5054282;28;20061;-43
2021/07/03 05:31:28;;;;;;;27.95;13.07;;;23.80;74.60;;;;;;5054801;28;20025;-45
2021/07/03 05:33:53;;;;;;;29.75;13.18;;;23.90;74.30;;;;;;5054850;28;20033;-43
2021/07/03 05:36:19;;;;;;;18.17;11.27;;;23.90;73.00;;;;;;5055138;28;20036;-43
2021/07/03 05:38:47;;;;;;;22.98;12.82;;;23.90;72.70;;;;;;5054670;28;20112;-46
2021/07/03 05:41:14;;;;;;;25.00;13.65;;;24.00;73.30;;;;;;5054979;28;20302;-45
2021/07/03 05:43:40;;;;;;;23.35;12.77;;;24.00;73.30;;;;;;5053179;28;20029;-44
2021/07/03 05:46:06;;;;;;;25.30;13.38;;;24.10;73.60;;;;;;5054697;28;20021;-43
2021/07/03 05:48:34;;;;;;;26.77;13.57;;;24.10;73.80;;;;;;5054071;28;20317;-47
2021/07/03 05:51:00;;;;;;;29.27;14.18;;;24.20;73.80;;;;;;5054690;28;20104;-43
2021/07/03 05:53:26;;;;;;;24.38;16.02;;;24.30;73.50;;;;;;5055470;28;20071;-44
2021/07/03 05:55:51;;;;;;;32.90;22.33;;;24.40;73.60;;;;;;5058882;28;20405;-46
2021/07/03 05:58:17;;;;;;;25.50;16.33;;;24.40;73.80;;;;;;5057805;28;20037;-47
2021/07/03 06:00:42;;;;;;;24.73;15.65;;;24.50;73.80;;;;;;5058618;28;20037;-45
2021/07/03 06:03:08;;;;;;;21.40;13.27;;;24.60;73.70;;;;;;5057889;28;20436;-47
2021/07/03 06:05:34;;;;;;;20.35;13.35;;;24.60;73.20;;;;;;5058301;28;20313;-45
2021/07/03 06:07:59;;;;;;;24.35;14.20;;;24.70;72.80;;;;;;5057384;28;20307;-43
2021/07/03 06:10:25;;;;;;;21.77;13.23;;;24.80;72.40;;;;;;5058409;28;20367;-45
2021/07/03 06:12:51;;;;;;;18.00;12.63;;;24.80;72.30;;;;;;5057612;28;20321;-45
2021/07/03 06:15:17;;;;;;;25.20;14.27;;;24.80;72.10;;;;;;5057975;28;20040;-43
2021/07/03 06:17:42;;;;;;;24.83;17.73;;;24.90;71.80;;;;;;5057527;28;20048;-44
2021/07/03 06:20:09;;;;;;;27.65;18.30;;;25.00;71.40;;;;;;5058360;28;20029;-45
2021/07/03 06:22:36;;;;;;;24.95;14.65;;;25.00;70.70;;;;;;5057498;28;20029;-43
2021/07/03 06:25:03;;;;;;;26.05;13.50;;;25.00;70.70;;;;;;5057753;28;20033;-44
2021/07/03 06:27:29;;;;;;;24.75;19.17;;;25.10;70.80;;;;;;5057081;28;20059;-44
2021/07/03 06:29:55;;;;;;;19.55;11.27;;;25.20;70.70;;;;;;5057798;28;20029;-44
2021/07/03 06:32:20;;;;;;;13.15;8.82;;;25.30;70.40;;;;;;5057452;28;20116;-45
2021/07/03 06:34:46;;;;;;;19.80;10.07;;;25.30;70.00;;;;;;5057606;28;20119;-45
2021/07/03 06:37:12;;;;;;;16.60;9.15;;;25.30;69.70;;;;;;5057526;28;20079;-44
2021/07/03 06:39:37;;;;;;;17.48;8.63;;;25.40;69.80;;;;;;5057695;28;20057;-44
2021/07/03 06:42:03;;;;;;;18.67;12.68;;;25.40;69.80;;;;;;5057493;28;20031;-44
2021/07/03 06:44:29;;;;;;;13.25;9.30;;;25.40;69.60;;;;;;5057373;28;20364;-44
2021/07/03 06:46:55;;;;;;;15.77;9.32;;;25.50;69.20;;;;;;5057121;28;20021;-43
2021/07/03 06:49:20;;;;;;;14.68;8.77;;;25.50;69.20;;;;;;5057120;28;20401;-43
2021/07/03 06:51:46;;;;;;;13.95;8.55;;;25.60;69.40;;;;;;5057037;28;20025;-44
2021/07/03 06:54:12;;;;;;;18.02;10.52;;;25.60;69.50;;;;;;5056611;28;20037;-43
2021/07/03 06:56:37;;;;;;;16.85;10.30;;;25.60;69.40;;;;;;5057121;28;20364;-43
2021/07/03 06:59:03;;;;;;;16.73;11.57;;;25.70;69.30;;;;;;5056773;28;20037;-46
2021/07/03 07:01:29;;;;;;;9.75;7.82;;;25.70;68.90;;;;;;5057330;28;20021;-44
2021/07/03 07:03:54;;;;;;;17.45;12.00;;;25.70;69.50;;;;;;5055150;28;20472;-43
2021/07/03 07:06:20;;;;;;;13.02;9.85;;;25.80;68.80;;;;;;5074982;28;20360;-44
2021/07/03 07:08:46;;;;;;;17.05;11.98;;;25.80;68.40;;;;;;5075967;28;20023;-46
2021/07/03 07:11:11;;;;;;;19.90;10.65;;;25.80;68.30;;;;;;5076720;28;20202;-43
2021/07/03 07:13:37;;;;;;;10.95;6.88;;;25.90;68.20;;;;;;5076130;28;20496;-44
2021/07/03 07:16:03;;;;;;;19.13;11.85;;;25.90;67.40;;;;;;5076499;28;20028;-45
2021/07/03 07:18:28;;;;;;;16.52;12.48;;;26.00;67.80;;;;;;5076240;28;20293;-43
2021/07/03 07:20:54;;;;;;;11.75;9.20;;;26.00;67.80;;;;;;5076676;28;20044;-45
2021/07/03 07:23:20;;;;;;;18.40;10.13;;;26.00;67.10;;;;;;5076063;28;20028;-45
2021/07/03 07:25:47;;;;;;;14.05;7.57;;;26.10;67.30;;;;;;5075871;28;20032;-44
2021/07/03 07:28:13;;;;;;;14.55;7.90;;;26.10;66.90;;;;;;5075857;28;20109;-43
2021/07/03 07:30:38;;;;;;;14.07;8.85;;;26.10;66.90;;;;;;5076440;28;20112;-45
2021/07/03 07:33:04;;;;;;;12.70;8.18;;;26.20;66.90;;;;;;5076070;28;20316;-43
2021/07/03 07:35:30;;;;;;;13.07;9.15;;;26.20;66.90;;;;;;5076191;28;20064;-44
2021/07/03 07:37:55;;;;;;;21.90;13.77;;;26.20;66.90;;;;;;5076068;28;20024;-45
2021/07/03 07:40:21;;;;;;;14.27;11.23;;;26.30;66.80;;;;;;5075749;28;20048;-44
2021/07/03 07:42:47;;;;;;;14.00;8.93;;;26.30;66.60;;;;;;5076076;28;20036;-44
2021/07/03 07:45:13;;;;;;;15.35;10.40;;;26.30;66.90;;;;;;5075383;28;20043;-46
2021/07/03 07:47:39;;;;;;;15.55;8.35;;;26.30;66.70;;;;;;5075311;28;20029;-44
2021/07/03 07:50:06;;;;;;;14.93;10.88;;;26.30;66.80;;;;;;5075904;28;20081;-44
2021/07/03 07:52:33;;;;;;;17.45;10.10;;;26.40;67.00;;;;;;5075586;28;20309;-45
2021/07/03 07:55:00;;;;;;;14.15;9.45;;;26.40;67.40;;;;;;5075676;28;20064;-44
2021/07/03 07:57:25;;;;;;;13.88;10.25;;;26.50;67.20;;;;;;5075566;28;20087;-43
2021/07/03 07:59:51;;;;;;;16.48;11.57;;;26.50;67.20;;;;;;5075518;28;20039;-43
2021/07/03 08:02:17;;;;;;;13.68;9.00;;;26.50;67.10;;;;;;5075265;28;20119;-44
2021/07/03 08:04:42;;;;;;;18.67;11.48;;;26.60;66.90;;;;;;5075029;28;20064;-44
2021/07/03 08:07:08;;;;;;;20.42;9.20;;;26.60;67.30;;;;;;5075470;28;20030;-47
2021/07/03 08:09:34;;;;;;;19.17;11.32;;;26.70;67.00;;;;;;5075213;28;20055;-45
2021/07/03 08:11:59;;;;;;;17.73;11.40;;;26.70;66.80;;;;;;5075097;28;20027;-45
2021/07/03 08:14:25;;;;;;;16.70;10.52;;;26.70;66.80;;;;;;5075252;28;20063;-44
2021/07/03 08:16:51;;;;;;;13.55;9.70;;;26.80;66.80;;;;;;5074760;28;20071;-44
2021/07/03 08:19:17;;;;;;;20.45;11.55;;;26.90;66.80;;;;;;5073824;28;20392;-45
2021/07/03 08:21:44;;;;;;;14.65;10.07;;;26.90;67.40;;;;;;5075135;28;20119;-45
2021/07/03 08:24:10;;;;;;;17.67;10.73;;;27.00;66.60;;;;;;5074595;28;20401;-43
2021/07/03 08:26:35;;;;;;;14.15;8.65;;;27.00;66.40;;;;;;5075162;28;20130;-44
2021/07/03 08:29:01;;;;;;;12.63;8.10;;;27.10;66.20;;;;;;5074431;28;20089;-44
2021/07/03 08:31:27;;;;;;;15.55;9.45;;;27.10;65.80;;;;;;5075387;28;20024;-45
2021/07/03 08:33:53;;;;;;;12.95;8.75;;;27.10;66.40;;;;;;5074551;28;20025;-44
2021/07/03 08:36:19;;;;;;;13.70;8.43;;;27.20;65.10;;;;;;5075136;28;20037;-44
2021/07/03 08:38:44;;;;;;;12.65;7.75;;;27.20;64.60;;;;;;5074836;28;20028;-44
2021/07/03 08:41:14;;;;;;;14.85;9.52;;;27.20;64.70;;;;;;5075106;28;20024;-44
2021/07/03 08:43:47;;;;;;;10.73;6.32;;;27.30;64.50;;;;;;5075003;28;20129;-45
2021/07/03 08:46:16;;;;;;;16.02;10.00;;;27.20;63.80;;;;;;5074744;28;20075;-45
2021/07/03 08:48:41;;;;;;;9.15;6.65;;;27.30;63.70;;;;;;5074796;28;20025;-44
2021/07/03 08:51:07;;;;;;;13.68;6.80;;;27.30;63.20;;;;;;5074862;28;20024;-44
2021/07/03 08:53:33;;;;;;;12.52;6.35;;;27.30;63.30;;;;;;5074490;28;20025;-44
2021/07/03 08:55:59;;;;;;;7.47;5.78;;;27.30;63.60;;;;;;5074653;28;20413;-43
2021/07/03 08:58:25;;;;;;;13.20;6.68;;;27.30;63.00;;;;;;5074349;28;20044;-45
2021/07/03 09:00:51;;;;;;;7.78;5.18;;;27.40;62.80;;;;;;5074866;28;20041;-47
2021/07/03 09:03:19;;;;;;;6.20;5.10;;;27.40;61.90;;;;;;5074412;28;20032;-44
2021/07/03 09:05:51;;;;;;;9.85;5.75;;;27.50;61.80;;;;;;5074858;28;20061;-45
2021/07/03 09:08:18;;;;;;;9.20;6.57;;;27.50;61.40;;;;;;5074802;28;20024;-45
2021/07/03 09:10:44;;;;;;;12.80;6.93;;;27.50;61.70;;;;;;5074876;28;20098;-44
2021/07/03 09:13:11;;;;;;;13.00;6.78;;;27.60;61.80;;;;;;5074455;28;20028;-44
2021/07/03 09:15:40;;;;;;;10.50;5.40;;;27.60;61.80;;;;;;5074764;28;20099;-44
2021/07/03 09:18:10;;;;;;;6.53;5.30;;;27.70;61.00;;;;;;5074540;28;20063;-44
2021/07/03 09:20:39;;;;;;;9.07;5.20;;;27.70;60.60;;;;;;5074801;28;20293;-44
2021/07/03 09:23:11;;;;;;;10.18;5.70;;;27.70;60.50;;;;;;5074359;28;20033;-45
2021/07/03 09:25:43;;;;;;;11.55;6.85;;;27.80;60.50;;;;;;5074261;28;20029;-46
2021/07/03 09:28:17;;;;;;;7.10;5.57;;;27.80;60.50;;;;;;5075183;28;20031;-45
2021/07/03 09:30:46;;;;;;;11.70;5.75;;;27.80;60.30;;;;;;5078831;28;20017;-45
2021/07/03 09:33:45;;;;;;;8.25;5.50;;;27.90;60.40;;;;;;5078216;28;20024;-46
2021/07/03 09:36:13;;;;;;;8.02;5.80;;;27.90;60.60;;;;;;5076861;28;20071;-46
2021/07/03 09:38:43;;;;;;;11.05;7.97;;;28.00;60.40;;;;;;5077536;28;20063;-46
2021/07/03 09:41:23;;;;;;;9.60;6.25;;;28.10;60.40;;;;;;5077858;28;20110;-44
2021/07/03 09:43:49;;;;;;;12.52;7.70;;;28.20;60.40;;;;;;5077512;28;20036;-44
2021/07/03 09:46:32;;;;;;;7.43;6.47;;;28.20;60.40;;;;;;5076793;28;20024;-44
2021/07/03 09:49:02;;;;;;;12.95;6.82;;;28.30;59.90;;;;;;5077736;28;20024;-44
2021/07/03 09:51:35;;;;;;;9.20;6.18;;;28.30;60.00;;;;;;5078041;28;20470;-45
2021/07/03 09:54:02;;;;;;;10.80;7.13;;;28.40;60.10;;;;;;5077542;28;20107;-44
2021/07/03 09:56:29;;;;;;;15.52;6.63;;;28.40;60.20;;;;;;5078008;28;20032;-43
2021/07/03 09:58:55;;;;;;;11.20;7.60;;;28.50;60.00;;;;;;5077610;28;20044;-44
2021/07/03 10:01:21;;;;;;;11.45;7.30;;;28.60;59.80;;;;;;5076807;28;20336;-45
2021/07/03 10:03:47;;;;;;;13.55;8.20;;;28.70;60.20;;;;;;5077680;28;20433;-43
2021/07/03 10:06:43;;;;;;;9.25;6.97;;;28.70;60.30;;;;;;5078156;28;20424;-42
2021/07/03 10:09:18;;;;;;;9.38;7.30;;;28.90;60.00;;;;;;5075433;28;20117;-42
2021/07/03 10:11:50;;;;;;;9.88;7.20;;;28.90;60.00;;;;;;5077979;28;20671;-44
2021/07/03 10:14:16;;;;;;;10.50;6.47;;;28.90;59.90;;;;;;5077711;28;20028;-44
2021/07/03 10:16:42;;;;;;;9.43;6.60;;;28.90;59.90;;;;;;5077719;28;20028;-42
2021/07/03 10:19:15;;;;;;;9.30;7.00;;;29.00;60.20;;;;;;5077651;28;20306;-46
2021/07/03 10:21:42;;;;;;;9.00;7.50;;;29.00;60.20;;;;;;5077725;28;20028;-48
2021/07/03 10:24:22;;;;;;;9.52;6.70;;;29.00;60.50;;;;;;5077539;28;20297;-44
2021/07/03 10:26:50;;;;;;;;;;;29.00;60.60;;;;;;5078115;28;20032;-44
2021/07/03 10:29:21;;;;;;;10.45;7.63;;;29.00;60.90;;;;;;5076862;28;19909;-46
2021/07/03 10:31:50;;;;;;;9.85;7.65;;;29.00;61.00;;;;;;5077428;28;20032;-45
2021/07/03 10:34:30;;;;;;;13.23;7.65;;;29.00;61.00;;;;;;5077727;28;20028;-44
2021/07/03 10:37:03;;;;;;;9.25;7.75;;;29.10;61.40;;;;;;5077607;28;20032;-44
2021/07/03 10:39:35;;;;;;;13.45;7.55;;;29.10;61.40;;;;;;5076714;28;20048;-43
2021/07/03 10:42:00;;;;;;;15.75;7.85;;;29.20;61.30;;;;;;5077345;28;20290;-44
2021/07/03 10:44:42;;;;;;;9.70;7.65;;;29.20;61.30;;;;;;5077774;28;20039;-43
2021/07/03 10:47:12;;;;;;;11.95;7.03;;;29.40;61.30;;;;;;5077216;28;20115;-43
2021/07/03 10:49:39;;;;;;;10.43;6.75;;;29.50;61.80;;;;;;5072497;28;20029;-45
2021/07/03 10:52:13;;;;;;;9.45;6.93;;;29.50;62.10;;;;;;5056952;28;20029;-44
2021/07/03 10:54:39;;;;;;;10.25;7.57;;;29.70;61.20;;;;;;5056868;28;20044;-44
2021/07/03 10:57:10;;;;;;;15.05;7.70;;;29.80;60.60;;;;;;5056970;28;20037;-43
2021/07/03 10:59:38;;;;;;;10.20;6.88;;;29.90;60.60;;;;;;5057361;28;20044;-44
2021/07/03 11:02:15;;;;;;;9.85;7.30;;;29.90;60.10;;;;;;5057062;28;20041;-42
2021/07/03 11:04:51;;;;;;;14.45;7.72;;;29.90;59.90;;;;;;5057181;28;20380;-42
2021/07/03 11:07:20;;;;;;;13.68;8.18;;;29.90;59.70;;;;;;5056528;28;20436;-42
2021/07/03 11:09:47;;;;;;;15.30;7.22;;;29.90;60.00;;;;;;5056961;28;20305;-43
2021/07/03 11:12:21;;;;;;;9.15;7.80;;;29.80;60.10;;;;;;5056796;28;20301;-43
2021/07/03 11:14:49;;;;;;;9.73;6.55;;;29.90;60.30;;;;;;5056636;28;20400;-44
2021/07/03 11:17:16;;;;;;;11.40;6.90;;;29.90;60.20;;;;;;5056505;28;20371;-43
2021/07/03 11:19:44;;;;;;;12.88;6.80;;;30.00;60.20;;;;;;5056430;28;20048;-45
2021/07/03 11:22:11;;;;;;;11.07;6.65;;;30.00;60.20;;;;;;5056362;28;20037;-43
2021/07/03 11:24:48;;;;;;;15.85;14.20;;;30.10;60.10;;;;;;5056607;28;20061;-45
2021/07/03 11:27:33;;;;;;;8.52;6.97;;;30.20;60.10;;;;;;5055572;28;20056;-44
2021/07/03 11:30:00;;;;;;;11.90;6.72;;;30.30;59.80;;;;;;5056265;28;20048;-44
2021/07/03 11:32:27;;;;;;;14.10;6.75;;;30.40;59.60;;;;;;5056157;28;20086;-43
2021/07/03 11:34:58;;;;;;;11.23;6.90;;;30.50;59.50;;;;;;5056640;28;20029;-44
2021/07/03 11:37:35;;;;;;;10.07;7.00;;;30.60;59.30;;;;;;5055988;28;20033;-45
2021/07/03 11:40:12;;;;;;;9.63;6.70;;;30.80;58.80;;;;;;5056289;28;20168;-46
2021/07/03 11:42:42;;;;;;;9.30;6.35;;;31.00;58.70;;;;;;5055817;28;20052;-44
2021/07/03 11:45:09;;;;;;;11.50;6.50;;;31.10;58.20;;;;;;5056257;28;20392;-46
2021/07/03 11:48:02;;;;;;;14.05;7.18;;;31.30;57.60;;;;;;5055699;28;20128;-43
2021/07/03 11:50:31;;;;;;;13.10;10.40;;;31.50;57.20;;;;;;5055524;28;20029;-44
2021/07/03 11:52:59;;;;;;;9.85;7.53;;;31.70;56.70;;;;;;5055715;28;20362;-45
2021/07/03 11:55:38;;;;;;;10.43;7.07;;;31.90;56.50;;;;;;5056124;28;20033;-44
2021/07/03 11:58:09;;;;;;;12.25;6.38;;;32.10;56.00;;;;;;5055813;28;20044;-44
2021/07/03 12:00:36;;;;;;;8.90;6.40;;;32.20;55.60;;;;;;5056325;28;20044;-47
2021/07/03 12:03:07;;;;;;;14.75;6.50;;;32.40;55.30;;;;;;5055256;28;20029;-45
2021/07/03 12:05:40;;;;;;;9.88;7.43;;;32.50;54.60;;;;;;5055678;28;20047;-45
2021/07/03 12:08:12;;;;;;;11.73;8.60;;;32.60;54.50;;;;;;5055270;28;20025;-44
2021/07/03 12:10:56;;;;;;;9.93;6.82;;;32.60;54.10;;;;;;5072438;28;20123;-44
2021/07/03 12:13:32;;;;;;;8.95;6.80;;;32.50;54.20;;;;;;5074701;28;20020;-45
2021/07/03 12:15:57;;;;;;;11.32;6.15;;;32.40;54.40;;;;;;5075512;28;20040;-46
2021/07/03 12:18:29;;;;;;;8.93;6.35;;;32.40;54.40;;;;;;5075028;28;20020;-44
2021/07/03 12:21:04;;;;;;;11.00;6.82;;;32.40;54.40;;;;;;5075409;28;20071;-44
2021/07/03 12:23:29;;;;;;;10.00;6.65;;;32.40;54.20;;;;;;5074763;28;20131;-45
2021/07/03 12:25:55;;;;;;;13.80;6.57;;;32.30;53.90;;;;;;5075826;28;20402;-47
2021/07/03 12:28:21;;;;;;;16.45;11.38;;;32.20;54.10;;;;;;5074524;28;20328;-46
2021/07/03 12:30:47;;;;;;;11.82;8.27;;;32.10;54.70;;;;;;5075727;28;20420;-44
2021/07/03 12:33:13;;;;;;;9.57;7.70;;;32.10;54.50;;;;;;5074602;28;20033;-43
2021/07/03 12:35:52;;;;;;;11.57;7.10;;;32.10;54.60;;;;;;5075458;28;20029;-45